sensor_id;sensor_type;location;lat;lon;timestamp;P1;durP1;ratioP1;P2;durP2;ratioP2
35022;SDS011;21214;44.912;8.204;2022-09-09T00:04:37;4.60;;;2.65;;
35022;SDS011;21214;44.912;8.204;2022-09-09T00:07:05;3.75;;;2.58;;
35022;SDS011;21214;44.912;8.204;2022-09-09T00:09:47;6.50;;;2.75;;
35022;SDS011;21214;44.912;8.204;2022-09-09T00:15:32;8.30;;;3.10;;
35022;SDS011;21214;44.912;8.204;2022-09-09T00:18:24;3.88;;;2.40;;
35022;SDS011;21214;44.912;8.204;2022-09-09T00:23:44;9.85;;;3.00;;
35022;SDS011;21214;44.912;8.204;2022-09-09T00:26:20;8.52;;;3.90;;
35022;SDS011;21214;44.912;8.204;2022-09-09T00:29:00;4.68;;;2.40;;
35022;SDS011;21214;44.912;8.204;2022-09-09T00:31:34;6.47;;;2.63;;
35022;SDS011;21214;44.912;8.204;2022-09-09T00:34:16;5.18;;;2.50;;
35022;SDS011;21214;44.912;8.204;2022-09-09T00:36:45;5.30;;;2.90;;
35022;SDS011;21214;44.912;8.204;2022-09-09T00:39:34;4.60;;;2.97;;
35022;SDS011;21214;44.912;8.204;2022-09-09T00:44:34;3.72;;;2.97;;
35022;SDS011;21214;44.912;8.204;2022-09-09T00:57:33;5.20;;;2.80;;
35022;SDS011;21214;44.912;8.204;2022-09-09T01:00:15;2.90;;;2.50;;
35022;SDS011;21214;44.912;8.204;2022-09-09T01:02:53;3.75;;;2.38;;
35022;SDS011;21214;44.912;8.204;2022-09-09T01:10:56;4.03;;;2.63;;
35022;SDS011;21214;44.912;8.204;2022-09-09T01:13:27;4.53;;;2.67;;
35022;SDS011;21214;44.912;8.204;2022-09-09T01:15:57;5.65;;;2.72;;
35022;SDS011;21214;44.912;8.204;2022-09-09T01:18:29;3.35;;;2.55;;
35022;SDS011;21214;44.912;8.204;2022-09-09T01:21:04;9.18;;;2.92;;
35022;SDS011;21214;44.912;8.204;2022-09-09T01:26:15;4.07;;;2.88;;
35022;SDS011;21214;44.912;8.204;2022-09-09T01:28:50;6.03;;;3.25;;
35022;SDS011;21214;44.912;8.204;2022-09-09T01:31:20;6.82;;;3.33;;
35022;SDS011;21214;44.912;8.204;2022-09-09T01:33:51;5.90;;;3.00;;
35022;SDS011;21214;44.912;8.204;2022-09-09T01:36:20;6.60;;;2.88;;
35022;SDS011;21214;44.912;8.204;2022-09-09T01:38:52;5.85;;;3.13;;
35022;SDS011;21214;44.912;8.204;2022-09-09T01:41:18;3.72;;;2.85;;
35022;SDS011;21214;44.912;8.204;2022-09-09T01:43:55;7.97;;;4.03;;
35022;SDS011;21214;44.912;8.204;2022-09-09T01:46:23;5.18;;;2.95;;
35022;SDS011;21214;44.912;8.204;2022-09-09T01:48:52;5.53;;;3.20;;
35022;SDS011;21214;44.912;8.204;2022-09-09T01:51:19;3.90;;;2.80;;
35022;SDS011;21214;44.912;8.204;2022-09-09T01:53:46;7.72;;;3.22;;
35022;SDS011;21214;44.912;8.204;2022-09-09T02:04:23;6.82;;;2.72;;
35022;SDS011;21214;44.912;8.204;2022-09-09T02:07:18;4.20;;;2.92;;
35022;SDS011;21214;44.912;8.204;2022-09-09T02:10:12;5.65;;;2.58;;
35022;SDS011;21214;44.912;8.204;2022-09-09T02:13:07;6.32;;;2.63;;
35022;SDS011;21214;44.912;8.204;2022-09-09T02:15:39;3.67;;;2.58;;
35022;SDS011;21214;44.912;8.204;2022-09-09T02:18:06;4.53;;;2.63;;
35022;SDS011;21214;44.912;8.204;2022-09-09T02:23:05;5.95;;;2.70;;
35022;SDS011;21214;44.912;8.204;2022-09-09T02:25:35;6.30;;;3.58;;
35022;SDS011;21214;44.912;8.204;2022-09-09T02:28:12;5.07;;;2.78;;
35022;SDS011;21214;44.912;8.204;2022-09-09T02:30:40;4.63;;;3.03;;
35022;SDS011;21214;44.912;8.204;2022-09-09T02:33:08;4.40;;;2.92;;
35022;SDS011;21214;44.912;8.204;2022-09-09T02:35:44;3.97;;;3.60;;
35022;SDS011;21214;44.912;8.204;2022-09-09T02:38:12;5.50;;;3.30;;
35022;SDS011;21214;44.912;8.204;2022-09-09T02:40:47;4.95;;;3.42;;
35022;SDS011;21214;44.912;8.204;2022-09-09T02:43:16;5.18;;;3.33;;
35022;SDS011;21214;44.912;8.204;2022-09-09T02:45:48;8.70;;;3.13;;
35022;SDS011;21214;44.912;8.204;2022-09-09T02:48:30;4.85;;;2.95;;
35022;SDS011;21214;44.912;8.204;2022-09-09T02:51:24;5.40;;;3.30;;
35022;SDS011;21214;44.912;8.204;2022-09-09T02:56:52;7.00;;;3.40;;
35022;SDS011;21214;44.912;8.204;2022-09-09T02:59:29;4.53;;;3.08;;
35022;SDS011;21214;44.912;8.204;2022-09-09T03:01:56;6.47;;;3.10;;
35022;SDS011;21214;44.912;8.204;2022-09-09T03:04:21;5.78;;;3.03;;
35022;SDS011;21214;44.912;8.204;2022-09-09T03:06:47;5.13;;;2.72;;
35022;SDS011;21214;44.912;8.204;2022-09-09T03:09:18;3.45;;;2.65;;
35022;SDS011;21214;44.912;8.204;2022-09-09T03:11:43;5.50;;;3.20;;
35022;SDS011;21214;44.912;8.204;2022-09-09T03:14:10;4.60;;;3.13;;
35022;SDS011;21214;44.912;8.204;2022-09-09T03:16:36;7.80;;;3.55;;
35022;SDS011;21214;44.912;8.204;2022-09-09T03:19:02;7.30;;;3.22;;
35022;SDS011;21214;44.912;8.204;2022-09-09T03:21:28;7.18;;;3.08;;
35022;SDS011;21214;44.912;8.204;2022-09-09T03:23:54;4.85;;;2.95;;
35022;SDS011;21214;44.912;8.204;2022-09-09T03:26:19;4.82;;;3.22;;
35022;SDS011;21214;44.912;8.204;2022-09-09T03:28:46;3.72;;;3.03;;
35022;SDS011;21214;44.912;8.204;2022-09-09T03:31:15;5.88;;;3.00;;
35022;SDS011;21214;44.912;8.204;2022-09-09T03:33:41;3.05;;;2.72;;
35022;SDS011;21214;44.912;8.204;2022-09-09T03:36:09;16.98;;;3.40;;
35022;SDS011;21214;44.912;8.204;2022-09-09T03:38:35;2.90;;;2.53;;
35022;SDS011;21214;44.912;8.204;2022-09-09T03:41:01;5.10;;;3.28;;
35022;SDS011;21214;44.912;8.204;2022-09-09T03:43:28;8.52;;;3.35;;
35022;SDS011;21214;44.912;8.204;2022-09-09T03:45:54;3.97;;;2.65;;
35022;SDS011;21214;44.912;8.204;2022-09-09T03:48:24;6.07;;;2.83;;
35022;SDS011;21214;44.912;8.204;2022-09-09T03:50:51;7.43;;;2.70;;
35022;SDS011;21214;44.912;8.204;2022-09-09T03:53:19;4.63;;;2.65;;
35022;SDS011;21214;44.912;8.204;2022-09-09T03:55:46;3.45;;;2.28;;
35022;SDS011;21214;44.912;8.204;2022-09-09T03:58:14;5.50;;;2.90;;
35022;SDS011;21214;44.912;8.204;2022-09-09T04:00:41;4.25;;;2.63;;
35022;SDS011;21214;44.912;8.204;2022-09-09T04:03:09;4.90;;;3.28;;
35022;SDS011;21214;44.912;8.204;2022-09-09T04:05:35;6.82;;;2.55;;
35022;SDS011;21214;44.912;8.204;2022-09-09T04:08:05;5.77;;;3.00;;
35022;SDS011;21214;44.912;8.204;2022-09-09T04:10:31;3.53;;;2.70;;
35022;SDS011;21214;44.912;8.204;2022-09-09T04:12:57;4.95;;;2.70;;
35022;SDS011;21214;44.912;8.204;2022-09-09T04:15:22;6.10;;;2.90;;
35022;SDS011;21214;44.912;8.204;2022-09-09T04:17:48;4.10;;;2.42;;
35022;SDS011;21214;44.912;8.204;2022-09-09T04:20:15;5.28;;;2.95;;
35022;SDS011;21214;44.912;8.204;2022-09-09T04:22:41;4.90;;;2.70;;
35022;SDS011;21214;44.912;8.204;2022-09-09T04:25:06;4.32;;;3.17;;
35022;SDS011;21214;44.912;8.204;2022-09-09T04:27:32;3.00;;;2.80;;
35022;SDS011;21214;44.912;8.204;2022-09-09T04:29:57;7.50;;;2.97;;
35022;SDS011;21214;44.912;8.204;2022-09-09T04:32:25;3.90;;;2.78;;
35022;SDS011;21214;44.912;8.204;2022-09-09T04:34:54;5.55;;;3.05;;
35022;SDS011;21214;44.912;8.204;2022-09-09T04:37:19;4.00;;;2.95;;
35022;SDS011;21214;44.912;8.204;2022-09-09T04:39:45;5.35;;;3.47;;
35022;SDS011;21214;44.912;8.204;2022-09-09T04:42:11;4.90;;;3.67;;
35022;SDS011;21214;44.912;8.204;2022-09-09T04:44:37;5.28;;;4.15;;
35022;SDS011;21214;44.912;8.204;2022-09-09T04:47:03;5.68;;;3.92;;
35022;SDS011;21214;44.912;8.204;2022-09-09T04:49:29;4.68;;;4.25;;
35022;SDS011;21214;44.912;8.204;2022-09-09T04:51:56;6.28;;;4.70;;
35022;SDS011;21214;44.912;8.204;2022-09-09T04:54:21;6.57;;;4.53;;
35022;SDS011;21214;44.912;8.204;2022-09-09T04:56:47;6.28;;;4.05;;
35022;SDS011;21214;44.912;8.204;2022-09-09T04:59:16;8.30;;;3.47;;
35022;SDS011;21214;44.912;8.204;2022-09-09T05:01:49;4.05;;;3.58;;
35022;SDS011;21214;44.912;8.204;2022-09-09T05:04:15;6.20;;;3.97;;
35022;SDS011;21214;44.912;8.204;2022-09-09T05:06:42;3.92;;;3.45;;
35022;SDS011;21214;44.912;8.204;2022-09-09T05:09:09;8.10;;;3.72;;
35022;SDS011;21214;44.912;8.204;2022-09-09T05:11:34;5.28;;;3.78;;
35022;SDS011;21214;44.912;8.204;2022-09-09T05:14:28;6.88;;;3.50;;
35022;SDS011;21214;44.912;8.204;2022-09-09T05:16:54;6.43;;;3.75;;
35022;SDS011;21214;44.912;8.204;2022-09-09T05:19:22;5.90;;;3.75;;
35022;SDS011;21214;44.912;8.204;2022-09-09T05:21:48;5.53;;;3.65;;
35022;SDS011;21214;44.912;8.204;2022-09-09T05:24:16;4.43;;;3.13;;
35022;SDS011;21214;44.912;8.204;2022-09-09T05:26:43;5.75;;;3.97;;
35022;SDS011;21214;44.912;8.204;2022-09-09T05:29:09;3.50;;;3.20;;
35022;SDS011;21214;44.912;8.204;2022-09-09T05:31:35;7.18;;;3.70;;
35022;SDS011;21214;44.912;8.204;2022-09-09T05:34:04;7.60;;;3.77;;
35022;SDS011;21214;44.912;8.204;2022-09-09T05:36:30;6.80;;;3.00;;
35022;SDS011;21214;44.912;8.204;2022-09-09T05:38:56;6.78;;;3.88;;
35022;SDS011;21214;44.912;8.204;2022-09-09T05:41:23;4.85;;;3.80;;
35022;SDS011;21214;44.912;8.204;2022-09-09T05:43:51;7.05;;;3.80;;
35022;SDS011;21214;44.912;8.204;2022-09-09T05:46:18;4.80;;;3.60;;
35022;SDS011;21214;44.912;8.204;2022-09-09T05:48:50;7.35;;;4.32;;
35022;SDS011;21214;44.912;8.204;2022-09-09T05:51:21;4.28;;;3.85;;
35022;SDS011;21214;44.912;8.204;2022-09-09T05:53:50;5.72;;;3.80;;
35022;SDS011;21214;44.912;8.204;2022-09-09T05:56:17;6.72;;;4.68;;
35022;SDS011;21214;44.912;8.204;2022-09-09T05:58:45;4.63;;;4.20;;
35022;SDS011;21214;44.912;8.204;2022-09-09T06:03:42;7.07;;;4.90;;
35022;SDS011;21214;44.912;8.204;2022-09-09T06:06:12;5.93;;;4.50;;
35022;SDS011;21214;44.912;8.204;2022-09-09T06:08:41;6.32;;;4.30;;
35022;SDS011;21214;44.912;8.204;2022-09-09T06:11:10;8.10;;;4.78;;
35022;SDS011;21214;44.912;8.204;2022-09-09T06:13:37;6.05;;;4.38;;
35022;SDS011;21214;44.912;8.204;2022-09-09T06:16:08;5.93;;;4.35;;
35022;SDS011;21214;44.912;8.204;2022-09-09T06:18:37;5.43;;;4.78;;
35022;SDS011;21214;44.912;8.204;2022-09-09T06:21:04;5.88;;;4.57;;
35022;SDS011;21214;44.912;8.204;2022-09-09T06:23:32;6.60;;;4.57;;
35022;SDS011;21214;44.912;8.204;2022-09-09T06:28:36;5.32;;;4.93;;
35022;SDS011;21214;44.912;8.204;2022-09-09T06:31:06;10.48;;;5.03;;
35022;SDS011;21214;44.912;8.204;2022-09-09T06:33:34;5.47;;;4.95;;
35022;SDS011;21214;44.912;8.204;2022-09-09T06:36:01;8.15;;;5.07;;
35022;SDS011;21214;44.912;8.204;2022-09-09T06:38:29;5.90;;;5.00;;
35022;SDS011;21214;44.912;8.204;2022-09-09T06:40:56;6.20;;;5.18;;
35022;SDS011;21214;44.912;8.204;2022-09-09T06:43:24;7.65;;;5.55;;
35022;SDS011;21214;44.912;8.204;2022-09-09T06:45:56;8.30;;;4.90;;
35022;SDS011;21214;44.912;8.204;2022-09-09T06:48:26;6.60;;;4.80;;
35022;SDS011;21214;44.912;8.204;2022-09-09T06:51:27;8.25;;;4.97;;
35022;SDS011;21214;44.912;8.204;2022-09-09T06:53:47;6.88;;;5.35;;
35022;SDS011;21214;44.912;8.204;2022-09-09T06:56:19;8.52;;;5.57;;
35022;SDS011;21214;44.912;8.204;2022-09-09T06:58:47;6.15;;;4.90;;
35022;SDS011;21214;44.912;8.204;2022-09-09T07:01:21;8.10;;;5.60;;
35022;SDS011;21214;44.912;8.204;2022-09-09T07:03:49;11.27;;;5.70;;
35022;SDS011;21214;44.912;8.204;2022-09-09T07:06:20;7.30;;;6.57;;
35022;SDS011;21214;44.912;8.204;2022-09-09T07:08:56;9.63;;;6.28;;
35022;SDS011;21214;44.912;8.204;2022-09-09T07:11:26;9.77;;;6.10;;
35022;SDS011;21214;44.912;8.204;2022-09-09T07:13:56;7.65;;;6.95;;
35022;SDS011;21214;44.912;8.204;2022-09-09T07:16:23;8.23;;;7.35;;
35022;SDS011;21214;44.912;8.204;2022-09-09T07:18:49;9.95;;;7.50;;
35022;SDS011;21214;44.912;8.204;2022-09-09T07:21:16;11.23;;;7.78;;
35022;SDS011;21214;44.912;8.204;2022-09-09T07:23:42;7.18;;;6.43;;
35022;SDS011;21214;44.912;8.204;2022-09-09T07:26:12;7.70;;;5.95;;
35022;SDS011;21214;44.912;8.204;2022-09-09T07:28:39;11.23;;;6.63;;
35022;SDS011;21214;44.912;8.204;2022-09-09T07:31:07;7.30;;;6.40;;
35022;SDS011;21214;44.912;8.204;2022-09-09T07:33:39;7.22;;;6.40;;
35022;SDS011;21214;44.912;8.204;2022-09-09T07:36:07;7.90;;;6.40;;
35022;SDS011;21214;44.912;8.204;2022-09-09T07:38:38;7.22;;;6.10;;
35022;SDS011;21214;44.912;8.204;2022-09-09T07:41:08;8.45;;;5.85;;
35022;SDS011;21214;44.912;8.204;2022-09-09T07:43:39;7.85;;;6.35;;
35022;SDS011;21214;44.912;8.204;2022-09-09T07:46:07;8.85;;;6.20;;
35022;SDS011;21214;44.912;8.204;2022-09-09T07:48:33;7.80;;;6.43;;
35022;SDS011;21214;44.912;8.204;2022-09-09T07:51:20;6.82;;;5.97;;
35022;SDS011;21214;44.912;8.204;2022-09-09T07:53:57;8.43;;;6.85;;
35022;SDS011;21214;44.912;8.204;2022-09-09T07:56:25;13.43;;;7.40;;
35022;SDS011;21214;44.912;8.204;2022-09-09T07:58:52;14.65;;;9.85;;
35022;SDS011;21214;44.912;8.204;2022-09-09T08:01:29;12.35;;;8.57;;
35022;SDS011;21214;44.912;8.204;2022-09-09T08:03:58;13.35;;;8.95;;
35022;SDS011;21214;44.912;8.204;2022-09-09T08:06:31;11.05;;;9.20;;
35022;SDS011;21214;44.912;8.204;2022-09-09T08:08:59;13.23;;;7.43;;
35022;SDS011;21214;44.912;8.204;2022-09-09T08:11:25;9.18;;;8.13;;
35022;SDS011;21214;44.912;8.204;2022-09-09T08:13:53;9.35;;;8.30;;
35022;SDS011;21214;44.912;8.204;2022-09-09T08:16:21;10.55;;;8.70;;
35022;SDS011;21214;44.912;8.204;2022-09-09T08:18:49;9.55;;;8.52;;
35022;SDS011;21214;44.912;8.204;2022-09-09T08:21:18;10.30;;;8.35;;
35022;SDS011;21214;44.912;8.204;2022-09-09T08:23:50;10.13;;;8.75;;
35022;SDS011;21214;44.912;8.204;2022-09-09T08:26:19;10.65;;;8.73;;
35022;SDS011;21214;44.912;8.204;2022-09-09T08:28:49;13.68;;;9.07;;
35022;SDS011;21214;44.912;8.204;2022-09-09T08:31:18;9.88;;;8.50;;
35022;SDS011;21214;44.912;8.204;2022-09-09T08:33:48;11.93;;;8.27;;
35022;SDS011;21214;44.912;8.204;2022-09-09T08:36:15;8.35;;;7.65;;
35022;SDS011;21214;44.912;8.204;2022-09-09T08:38:42;12.15;;;8.90;;
35022;SDS011;21214;44.912;8.204;2022-09-09T08:47:18;8.60;;;7.28;;
35022;SDS011;21214;44.912;8.204;2022-09-09T08:55:21;5.63;;;5.00;;
35022;SDS011;21214;44.912;8.204;2022-09-09T08:57:49;6.32;;;5.45;;
35022;SDS011;21214;44.912;8.204;2022-09-09T09:00:18;7.18;;;6.57;;
35022;SDS011;21214;44.912;8.204;2022-09-09T09:05:59;8.55;;;7.47;;
35022;SDS011;21214;44.912;8.204;2022-09-09T09:11:38;14.07;;;7.85;;
35022;SDS011;21214;44.912;8.204;2022-09-09T09:16:50;8.80;;;6.78;;
35022;SDS011;21214;44.912;8.204;2022-09-09T09:19:19;7.78;;;6.90;;
35022;SDS011;21214;44.912;8.204;2022-09-09T09:24:35;9.48;;;8.38;;
35022;SDS011;21214;44.912;8.204;2022-09-09T09:27:21;8.73;;;6.32;;
35022;SDS011;21214;44.912;8.204;2022-09-09T09:29:54;9.55;;;8.43;;
35022;SDS011;21214;44.912;8.204;2022-09-09T09:32:23;9.90;;;7.85;;
35022;SDS011;21214;44.912;8.204;2022-09-09T09:34:51;6.68;;;6.05;;
35022;SDS011;21214;44.912;8.204;2022-09-09T09:37:29;7.55;;;6.13;;
35022;SDS011;21214;44.912;8.204;2022-09-09T09:40:19;9.40;;;6.47;;
35022;SDS011;21214;44.912;8.204;2022-09-09T09:42:48;13.48;;;6.55;;
35022;SDS011;21214;44.912;8.204;2022-09-09T09:45:20;7.85;;;6.10;;
35022;SDS011;21214;44.912;8.204;2022-09-09T09:47:57;7.53;;;6.72;;
35022;SDS011;21214;44.912;8.204;2022-09-09T09:50:29;9.73;;;6.05;;
35022;SDS011;21214;44.912;8.204;2022-09-09T09:52:57;10.45;;;8.00;;
35022;SDS011;21214;44.912;8.204;2022-09-09T09:55:28;5.88;;;5.38;;
35022;SDS011;21214;44.912;8.204;2022-09-09T09:58:03;10.82;;;7.18;;
35022;SDS011;21214;44.912;8.204;2022-09-09T10:00:33;6.03;;;5.40;;
35022;SDS011;21214;44.912;8.204;2022-09-09T10:03:13;9.68;;;8.10;;
35022;SDS011;21214;44.912;8.204;2022-09-09T10:05:50;11.43;;;6.47;;
35022;SDS011;21214;44.912;8.204;2022-09-09T10:08:16;6.28;;;5.70;;
35022;SDS011;21214;44.912;8.204;2022-09-09T10:10:48;8.45;;;7.35;;
35022;SDS011;21214;44.912;8.204;2022-09-09T10:19:35;10.82;;;6.55;;
35022;SDS011;21214;44.912;8.204;2022-09-09T10:22:04;8.23;;;5.72;;
35022;SDS011;21214;44.912;8.204;2022-09-09T10:30:06;8.20;;;7.03;;
35022;SDS011;21214;44.912;8.204;2022-09-09T10:32:40;5.03;;;4.35;;
35022;SDS011;21214;44.912;8.204;2022-09-09T10:40:50;6.70;;;3.75;;
35022;SDS011;21214;44.912;8.204;2022-09-09T10:48:50;4.53;;;3.35;;
35022;SDS011;21214;44.912;8.204;2022-09-09T10:51:22;3.33;;;3.03;;
35022;SDS011;21214;44.912;8.204;2022-09-09T10:53:59;9.73;;;3.00;;
35022;SDS011;21214;44.912;8.204;2022-09-09T10:56:29;5.53;;;3.03;;
35022;SDS011;21214;44.912;8.204;2022-09-09T11:01:37;3.22;;;2.85;;
35022;SDS011;21214;44.912;8.204;2022-09-09T11:06:42;4.90;;;2.50;;
35022;SDS011;21214;44.912;8.204;2022-09-09T11:11:45;3.90;;;2.08;;
35022;SDS011;21214;44.912;8.204;2022-09-09T11:14:20;4.45;;;2.20;;
35022;SDS011;21214;44.912;8.204;2022-09-09T11:17:01;3.60;;;2.60;;
35022;SDS011;21214;44.912;8.204;2022-09-09T11:27:30;3.50;;;2.40;;
35022;SDS011;21214;44.912;8.204;2022-09-09T11:35:46;3.78;;;2.55;;
35022;SDS011;21214;44.912;8.204;2022-09-09T11:41:18;4.25;;;2.20;;
35022;SDS011;21214;44.912;8.204;2022-09-09T11:43:49;5.20;;;1.98;;
35022;SDS011;21214;44.912;8.204;2022-09-09T11:46:17;2.10;;;1.90;;
35022;SDS011;21214;44.912;8.204;2022-09-09T11:48:57;2.13;;;1.92;;
35022;SDS011;21214;44.912;8.204;2022-09-09T11:51:27;2.75;;;1.85;;
35022;SDS011;21214;44.912;8.204;2022-09-09T11:53:56;2.00;;;1.70;;
35022;SDS011;21214;44.912;8.204;2022-09-09T11:58:59;2.33;;;1.27;;
35022;SDS011;21214;44.912;8.204;2022-09-09T12:01:39;3.08;;;1.67;;
35022;SDS011;21214;44.912;8.204;2022-09-09T12:06:46;1.73;;;1.33;;
35022;SDS011;21214;44.912;8.204;2022-09-09T12:11:53;2.30;;;1.67;;
35022;SDS011;21214;44.912;8.204;2022-09-09T12:14:35;1.10;;;1.00;;
35022;SDS011;21214;44.912;8.204;2022-09-09T12:19:47;1.80;;;1.23;;
35022;SDS011;21214;44.912;8.204;2022-09-09T12:25:09;2.58;;;1.90;;
35022;SDS011;21214;44.912;8.204;2022-09-09T12:27:44;3.90;;;1.60;;
35022;SDS011;21214;44.912;8.204;2022-09-09T12:30:57;1.85;;;1.48;;
35022;SDS011;21214;44.912;8.204;2022-09-09T12:33:34;3.20;;;1.38;;
35022;SDS011;21214;44.912;8.204;2022-09-09T12:36:02;3.25;;;1.67;;
35022;SDS011;21214;44.912;8.204;2022-09-09T12:38:35;2.55;;;1.67;;
35022;SDS011;21214;44.912;8.204;2022-09-09T12:41:02;2.70;;;1.70;;
35022;SDS011;21214;44.912;8.204;2022-09-09T12:43:28;5.25;;;1.45;;
35022;SDS011;21214;44.912;8.204;2022-09-09T12:45:56;1.55;;;1.20;;
35022;SDS011;21214;44.912;8.204;2022-09-09T12:48:36;2.85;;;1.38;;
35022;SDS011;21214;44.912;8.204;2022-09-09T12:51:06;5.03;;;1.20;;
35022;SDS011;21214;44.912;8.204;2022-09-09T12:53:42;2.25;;;1.38;;
35022;SDS011;21214;44.912;8.204;2022-09-09T12:56:17;3.03;;;1.55;;
35022;SDS011;21214;44.912;8.204;2022-09-09T12:58:45;1.70;;;1.20;;
35022;SDS011;21214;44.912;8.204;2022-09-09T13:01:23;2.00;;;1.17;;
35022;SDS011;21214;44.912;8.204;2022-09-09T13:03:50;3.35;;;1.67;;
35022;SDS011;21214;44.912;8.204;2022-09-09T13:06:24;2.95;;;1.33;;
35022;SDS011;21214;44.912;8.204;2022-09-09T13:08:52;1.30;;;1.20;;
35022;SDS011;21214;44.912;8.204;2022-09-09T13:14:05;2.17;;;1.42;;
35022;SDS011;21214;44.912;8.204;2022-09-09T13:16:35;3.42;;;1.20;;
35022;SDS011;21214;44.912;8.204;2022-09-09T13:19:06;1.92;;;1.17;;
35022;SDS011;21214;44.912;8.204;2022-09-09T13:21:34;1.70;;;1.60;;
35022;SDS011;21214;44.912;8.204;2022-09-09T13:27:20;4.28;;;1.40;;
35022;SDS011;21214;44.912;8.204;2022-09-09T13:32:48;2.00;;;1.20;;
35022;SDS011;21214;44.912;8.204;2022-09-09T13:35:27;2.67;;;1.00;;
35022;SDS011;21214;44.912;8.204;2022-09-09T13:37:52;3.70;;;1.05;;
35022;SDS011;21214;44.912;8.204;2022-09-09T13:40:19;1.30;;;1.20;;
35022;SDS011;21214;44.912;8.204;2022-09-09T13:42:46;2.35;;;1.30;;
35022;SDS011;21214;44.912;8.204;2022-09-09T13:45:16;2.70;;;1.20;;
35022;SDS011;21214;44.912;8.204;2022-09-09T13:47:47;1.98;;;1.20;;
35022;SDS011;21214;44.912;8.204;2022-09-09T13:50:20;3.80;;;1.30;;
35022;SDS011;21214;44.912;8.204;2022-09-09T13:52:54;3.17;;;1.42;;
35022;SDS011;21214;44.912;8.204;2022-09-09T13:55:23;1.58;;;1.20;;
35022;SDS011;21214;44.912;8.204;2022-09-09T13:57:54;2.38;;;1.40;;
35022;SDS011;21214;44.912;8.204;2022-09-09T14:00:31;1.38;;;1.23;;
35022;SDS011;21214;44.912;8.204;2022-09-09T14:03:00;1.38;;;1.10;;
35022;SDS011;21214;44.912;8.204;2022-09-09T14:05:30;3.38;;;1.60;;
35022;SDS011;21214;44.912;8.204;2022-09-09T14:07:57;1.95;;;1.25;;
35022;SDS011;21214;44.912;8.204;2022-09-09T14:10:25;2.17;;;1.92;;
35022;SDS011;21214;44.912;8.204;2022-09-09T14:12:51;2.92;;;1.42;;
35022;SDS011;21214;44.912;8.204;2022-09-09T14:15:16;2.10;;;1.15;;
35022;SDS011;21214;44.912;8.204;2022-09-09T14:17:42;1.50;;;1.40;;
35022;SDS011;21214;44.912;8.204;2022-09-09T14:20:08;1.63;;;1.10;;
35022;SDS011;21214;44.912;8.204;2022-09-09T14:22:34;3.17;;;1.30;;
35022;SDS011;21214;44.912;8.204;2022-09-09T14:25:00;2.38;;;1.40;;
35022;SDS011;21214;44.912;8.204;2022-09-09T14:27:26;4.38;;;1.30;;
35022;SDS011;21214;44.912;8.204;2022-09-09T14:29:52;1.63;;;1.05;;
35022;SDS011;21214;44.912;8.204;2022-09-09T14:32:18;2.03;;;1.33;;
35022;SDS011;21214;44.912;8.204;2022-09-09T14:34:44;1.73;;;1.33;;
35022;SDS011;21214;44.912;8.204;2022-09-09T14:37:10;4.57;;;1.25;;
35022;SDS011;21214;44.912;8.204;2022-09-09T14:39:35;1.63;;;1.13;;
35022;SDS011;21214;44.912;8.204;2022-09-09T14:42:01;2.20;;;1.45;;
35022;SDS011;21214;44.912;8.204;2022-09-09T14:44:27;1.45;;;1.30;;
35022;SDS011;21214;44.912;8.204;2022-09-09T14:46:53;1.50;;;1.40;;
35022;SDS011;21214;44.912;8.204;2022-09-09T14:49:19;1.83;;;1.60;;
35022;SDS011;21214;44.912;8.204;2022-09-09T14:51:45;2.60;;;1.52;;
35022;SDS011;21214;44.912;8.204;2022-09-09T14:54:10;1.88;;;1.25;;
35022;SDS011;21214;44.912;8.204;2022-09-09T14:56:36;2.45;;;1.88;;
35022;SDS011;21214;44.912;8.204;2022-09-09T14:59:02;2.38;;;1.55;;
35022;SDS011;21214;44.912;8.204;2022-09-09T15:01:27;2.83;;;1.80;;
35022;SDS011;21214;44.912;8.204;2022-09-09T15:03:55;2.00;;;1.80;;
35022;SDS011;21214;44.912;8.204;2022-09-09T15:06:23;4.70;;;2.00;;
35022;SDS011;21214;44.912;8.204;2022-09-09T15:08:50;3.53;;;1.90;;
35022;SDS011;21214;44.912;8.204;2022-09-09T15:11:18;2.40;;;1.63;;
35022;SDS011;21214;44.912;8.204;2022-09-09T15:13:44;1.92;;;1.23;;
35022;SDS011;21214;44.912;8.204;2022-09-09T15:16:14;4.15;;;1.42;;
35022;SDS011;21214;44.912;8.204;2022-09-09T15:18:41;1.50;;;1.40;;
35022;SDS011;21214;44.912;8.204;2022-09-09T15:21:09;2.78;;;1.20;;
35022;SDS011;21214;44.912;8.204;2022-09-09T15:23:36;1.48;;;1.38;;
35022;SDS011;21214;44.912;8.204;2022-09-09T15:26:02;1.75;;;1.38;;
35022;SDS011;21214;44.912;8.204;2022-09-09T15:28:27;2.72;;;1.45;;
35022;SDS011;21214;44.912;8.204;2022-09-09T15:30:54;2.20;;;1.30;;
35022;SDS011;21214;44.912;8.204;2022-09-09T15:33:20;2.00;;;1.50;;
35022;SDS011;21214;44.912;8.204;2022-09-09T15:35:46;1.23;;;1.10;;
35022;SDS011;21214;44.912;8.204;2022-09-09T15:38:12;1.48;;;1.10;;
35022;SDS011;21214;44.912;8.204;2022-09-09T15:40:38;1.20;;;1.10;;
35022;SDS011;21214;44.912;8.204;2022-09-09T15:43:05;1.50;;;1.35;;
35022;SDS011;21214;44.912;8.204;2022-09-09T15:45:31;1.70;;;1.17;;
35022;SDS011;21214;44.912;8.204;2022-09-09T15:47:59;1.70;;;1.23;;
35022;SDS011;21214;44.912;8.204;2022-09-09T15:50:27;3.03;;;1.30;;
35022;SDS011;21214;44.912;8.204;2022-09-09T15:55:23;2.20;;;1.30;;
35022;SDS011;21214;44.912;8.204;2022-09-09T15:57:51;1.45;;;1.02;;
35022;SDS011;21214;44.912;8.204;2022-09-09T16:00:20;2.03;;;1.15;;
35022;SDS011;21214;44.912;8.204;2022-09-09T16:02:46;4.05;;;1.35;;
35022;SDS011;21214;44.912;8.204;2022-09-09T16:05:13;2.50;;;1.30;;
35022;SDS011;21214;44.912;8.204;2022-09-09T16:07:38;3.63;;;1.20;;
35022;SDS011;21214;44.912;8.204;2022-09-09T16:10:04;1.95;;;1.20;;
35022;SDS011;21214;44.912;8.204;2022-09-09T16:12:30;2.42;;;1.40;;
35022;SDS011;21214;44.912;8.204;2022-09-09T16:14:56;1.38;;;1.20;;
35022;SDS011;21214;44.912;8.204;2022-09-09T16:17:21;1.60;;;0.95;;
35022;SDS011;21214;44.912;8.204;2022-09-09T16:19:47;2.17;;;1.30;;
35022;SDS011;21214;44.912;8.204;2022-09-09T16:22:12;3.28;;;1.30;;
35022;SDS011;21214;44.912;8.204;2022-09-09T16:24:40;2.35;;;1.30;;
35022;SDS011;21214;44.912;8.204;2022-09-09T16:27:06;2.25;;;1.23;;
35022;SDS011;21214;44.912;8.204;2022-09-09T16:29:31;1.80;;;1.20;;
35022;SDS011;21214;44.912;8.204;2022-09-09T16:31:57;1.40;;;1.30;;
35022;SDS011;21214;44.912;8.204;2022-09-09T16:34:23;1.80;;;1.50;;
35022;SDS011;21214;44.912;8.204;2022-09-09T16:36:50;1.83;;;1.20;;
35022;SDS011;21214;44.912;8.204;2022-09-09T16:39:17;2.38;;;1.25;;
35022;SDS011;21214;44.912;8.204;2022-09-09T16:41:44;2.67;;;1.00;;
35022;SDS011;21214;44.912;8.204;2022-09-09T16:44:11;1.92;;;1.40;;
35022;SDS011;21214;44.912;8.204;2022-09-09T16:46:39;2.58;;;1.05;;
35022;SDS011;21214;44.912;8.204;2022-09-09T16:49:07;1.42;;;1.23;;
35022;SDS011;21214;44.912;8.204;2022-09-09T16:51:36;4.65;;;1.38;;
35022;SDS011;21214;44.912;8.204;2022-09-09T16:54:03;2.20;;;1.17;;
35022;SDS011;21214;44.912;8.204;2022-09-09T16:56:32;1.27;;;1.17;;
35022;SDS011;21214;44.912;8.204;2022-09-09T16:58:59;1.73;;;1.35;;
35022;SDS011;21214;44.912;8.204;2022-09-09T17:01:27;2.83;;;1.58;;
35022;SDS011;21214;44.912;8.204;2022-09-09T17:03:58;2.60;;;1.23;;
35022;SDS011;21214;44.912;8.204;2022-09-09T17:06:26;3.42;;;1.42;;
35022;SDS011;21214;44.912;8.204;2022-09-09T17:08:59;1.17;;;1.00;;
35022;SDS011;21214;44.912;8.204;2022-09-09T17:11:26;2.83;;;1.30;;
35022;SDS011;21214;44.912;8.204;2022-09-09T17:13:53;2.60;;;1.50;;
35022;SDS011;21214;44.912;8.204;2022-09-09T17:16:20;1.38;;;1.20;;
35022;SDS011;21214;44.912;8.204;2022-09-09T17:18:50;1.45;;;1.30;;
35022;SDS011;21214;44.912;8.204;2022-09-09T17:21:20;4.75;;;1.70;;
35022;SDS011;21214;44.912;8.204;2022-09-09T17:23:48;3.30;;;1.30;;
35022;SDS011;21214;44.912;8.204;2022-09-09T17:26:15;1.65;;;1.30;;
35022;SDS011;21214;44.912;8.204;2022-09-09T17:28:43;1.88;;;1.17;;